Time;durP1;ratioP1;P1;durP2;ratioP2;P2;SDS_P1;SDS_P2;PMS_P1;PMS_P2;Temp;Humidity;BMP_temperature;BMP_pressure;BME280_temperature;BME280_humidity;BME280_pressure;Samples;Min_cycle;Max_cycle;Signal;HPM_P1;HPM_P2
2021/03/02 00:01:06;;;;;;;1.57;1.47;;;;;;;;;;5033163;28;20412;-68
2021/03/02 00:03:33;;;;;;;2.40;2.20;;;;;;;;;;5030305;28;20418;-70
2021/03/02 00:06:02;;;;;;;8.63;3.13;;;;;;;;;;5034374;28;20446;-69
2021/03/02 00:08:28;;;;;;;1.43;1.30;;;;;;;;;;5033554;28;20819;-71
2021/03/02 00:10:55;;;;;;;1.53;1.43;;;;;;;;;;5032879;28;20408;-69
2021/03/02 00:13:23;;;;;;;1.90;1.80;;;;;;;;;;5031751;28;20470;-70
2021/03/02 00:15:49;;;;;;;4.93;1.30;;;;;;;;;;5032012;28;20446;-70
2021/03/02 00:18:18;;;;;;;1.43;1.33;;;;;;;;;;5013608;28;20498;-70
2021/03/02 00:20:45;;;;;;;3.50;1.70;;;;;;;;;;5012472;28;20404;-71
2021/03/02 00:23:16;;;;;;;2.60;0.87;;;;;;;;;;5020695;28;20415;-70
2021/03/02 00:25:44;;;;;;;1.33;1.00;;;;;;;;;;5012563;28;20403;-69
2021/03/02 00:28:10;;;;;;;1.70;1.60;;;;;;;;;;5054544;22;20511;-70
2021/03/02 00:30:37;;;;;;;1.77;1.67;;;;;;;;;;5065144;28;20492;-70
2021/03/02 00:33:04;;;;;;;64.87;41.93;;;;;;;;;;5067383;28;20471;-70
2021/03/02 00:35:30;;;;;;;1.83;1.73;;;;;;;;;;5054086;28;20794;-70
2021/03/02 00:37:56;;;;;;;0.80;0.70;;;;;;;;;;5070646;28;20438;-69
2021/03/02 00:40:22;;;;;;;1.33;1.23;;;;;;;;;;5067279;28;20445;-70
2021/03/02 00:42:49;;;;;;;0.80;0.70;;;;;;;;;;5053474;28;20798;-70
2021/03/02 00:45:15;;;;;;;3.00;1.60;;;;;;;;;;5063242;28;20968;-69
2021/03/02 00:47:41;;;;;;;4.50;1.20;;;;;;;;;;5066150;28;20444;-69
2021/03/02 00:50:07;;;;;;;3.43;1.80;;;;;;;;;;5052805;28;20755;-69
2021/03/02 00:52:34;;;;;;;5.23;4.77;;;;;;;;;;5071162;28;20919;-69
2021/03/02 00:55:00;;;;;;;2.37;1.83;;;;;;;;;;5070501;28;20920;-69
2021/03/02 00:57:26;;;;;;;0.90;0.70;;;;;;;;;;5051580;28;20976;-70
2021/03/02 00:59:52;;;;;;;2.87;1.43;;;;;;;;;;5070610;28;20851;-70
2021/03/02 01:02:18;;;;;;;1.97;1.23;;;;;;;;;;5071182;28;20421;-69
2021/03/02 01:04:44;;;;;;;2.20;1.87;;;;;;;;;;5070203;28;20409;-69
2021/03/02 01:07:10;;;;;;;3.77;1.80;;;;;;;;;;5047562;28;20800;-70
2021/03/02 01:09:36;;;;;;;1.47;1.00;;;;;;;;;;5070345;28;20822;-70
2021/03/02 01:12:02;;;;;;;4.97;2.00;;;;;;;;;;5070512;28;20420;-69
2021/03/02 01:14:29;;;;;;;1.67;1.43;;;;;;;;;;5070342;28;20401;-70
2021/03/02 01:16:57;;;;;;;2.13;1.50;;;;;;;;;;5066799;28;20411;-70
2021/03/02 01:19:23;;;;;;;7.37;2.73;;;;;;;;;;5051141;28;20985;-70
2021/03/02 01:21:50;;;;;;;4.50;1.87;;;;;;;;;;5050912;28;20393;-70
2021/03/02 01:24:16;;;;;;;2.93;2.73;;;;;;;;;;5085794;28;20453;-69
2021/03/02 01:26:42;;;;;;;2.57;2.40;;;;;;;;;;5061187;28;20922;-70
2021/03/02 01:29:08;;;;;;;1.00;0.90;;;;;;;;;;5050467;28;20466;-71
2021/03/02 01:31:34;;;;;;;6.20;1.97;;;;;;;;;;5051937;28;20486;-69
2021/03/02 01:34:00;;;;;;;2.93;2.10;;;;;;;;;;5069748;28;20408;-70
2021/03/02 01:36:26;;;;;;;2.97;2.10;;;;;;;;;;5058434;28;20409;-70
2021/03/02 01:38:52;;;;;;;1.40;1.00;;;;;;;;;;5050114;28;20538;-70
2021/03/02 01:41:18;;;;;;;1.77;1.63;;;;;;;;;;5069688;28;20959;-70
2021/03/02 01:43:44;;;;;;;0.80;0.70;;;;;;;;;;5072121;28;20486;-71
2021/03/02 01:46:10;;;;;;;4.67;2.40;;;;;;;;;;5061497;28;20411;-70
2021/03/02 01:48:37;;;;;;;1.00;0.90;;;;;;;;;;5049564;28;20442;-69
2021/03/02 01:51:03;;;;;;;2.17;2.00;;;;;;;;;;5064039;28;20606;-70
2021/03/02 01:53:29;;;;;;;12.03;1.73;;;;;;;;;;5069535;28;20944;-68
2021/03/02 01:55:55;;;;;;;10.97;1.40;;;;;;;;;;5071097;28;20398;-70
2021/03/02 01:58:21;;;;;;;1.30;1.20;;;;;;;;;;5073443;28;21055;-69
2021/03/02 02:00:49;;;;;;;0.80;0.70;;;;;;;;;;5057680;28;20441;-70
2021/03/02 02:03:34;;;;;;;1.97;1.47;;;;;;;;;;5054019;28;21064;-69
2021/03/02 02:06:06;;;;;;;1.73;1.63;;;;;;;;;;5054808;28;20403;-70
2021/03/02 02:08:51;;;;;;;3.70;1.23;;;;;;;;;;5050014;28;20530;-69
2021/03/02 02:11:25;;;;;;;1.90;1.10;;;;;;;;;;5072807;28;20419;-69
2021/03/02 02:13:52;;;;;;;1.00;0.87;;;;;;;;;;5073860;28;20502;-70
2021/03/02 02:16:21;;;;;;;3.13;2.83;;;;;;;;;;5074278;28;20448;-70
2021/03/02 02:18:48;;;;;;;1.63;1.53;;;;;;;;;;5074187;28;20494;-69
2021/03/02 02:21:17;;;;;;;7.40;3.03;;;;;;;;;;5061576;28;20438;-71
2021/03/02 02:23:48;;;;;;;1.00;0.90;;;;;;;;;;5054370;28;20760;-69
2021/03/02 02:26:33;;;;;;;2.97;2.70;;;;;;;;;;5074366;28;20416;-70
2021/03/02 02:29:00;;;;;;;0.77;0.70;;;;;;;;;;5073674;28;20774;-70
2021/03/02 02:31:27;;;;;;;2.30;2.03;;;;;;;;;;5074653;28;20965;-67
2021/03/02 02:33:53;;;;;;;4.73;4.07;;;;;;;;;;5065186;28;20412;-70
2021/03/02 02:36:20;;;;;;;1.27;1.17;;;;;;;;;;5054073;28;20398;-68
2021/03/02 02:38:56;;;;;;;3.63;1.23;;;;;;;;;;5061876;28;20461;-68
2021/03/02 02:41:22;;;;;;;1.33;1.23;;;;;;;;;;5056338;28;20482;-68
2021/03/02 02:43:49;;;;;;;1.80;1.03;;;;;;;;;;5052521;28;20503;-69
2021/03/02 02:46:15;;;;;;;1.47;1.37;;;;;;;;;;5053743;28;20472;-69
2021/03/02 02:48:42;;;;;;;1.20;1.10;;;;;;;;;;5062642;28;20436;-69
2021/03/02 02:51:08;;;;;;;83.17;64.40;;;;;;;;;;5073284;28;20482;-68
2021/03/02 02:53:35;;;;;;;0.87;0.73;;;;;;;;;;5068670;28;20509;-69
2021/03/02 02:56:02;;;;;;;1.17;0.70;;;;;;;;;;5068887;28;20527;-69
2021/03/02 02:58:31;;;;;;;0.93;0.83;;;;;;;;;;5073283;28;20457;-69
2021/03/02 03:01:02;;;;;;;3.67;0.90;;;;;;;;;;5073155;28;20467;-69
2021/03/02 03:03:28;;;;;;;0.93;0.93;;;;;;;;;;5072471;28;20422;-69
2021/03/02 03:05:57;;;;;;;2.20;1.00;;;;;;;;;;5073593;28;20487;-70
2021/03/02 03:08:26;;;;;;;3.20;1.63;;;;;;;;;;5053309;28;20799;-69
2021/03/02 03:10:53;;;;;;;1.67;1.57;;;;;;;;;;5063896;28;20409;-69
2021/03/02 03:13:20;;;;;;;2.87;1.90;;;;;;;;;;5072594;28;20421;-69
2021/03/02 03:15:47;;;;;;;2.63;1.30;;;;;;;;;;5069608;28;20412;-70
2021/03/02 03:18:13;;;;;;;7.20;1.13;;;;;;;;;;5053161;28;20431;-70
2021/03/02 03:20:39;;;;;;;1.33;1.23;;;;;;;;;;5061147;28;20501;-69
2021/03/02 03:23:06;;;;;;;3.67;1.70;;;;;;;;;;5071341;28;20906;-69
2021/03/02 03:25:32;;;;;;;0.70;0.50;;;;;;;;;;5072354;28;20407;-69
2021/03/02 03:28:00;;;;;;;1.30;1.03;;;;;;;;;;5072899;28;21036;-69
2021/03/02 03:30:28;;;;;;;4.50;4.27;;;;;;;;;;5072727;28;20468;-69
2021/03/02 03:33:04;;;;;;;2.03;1.67;;;;;;;;;;5071345;28;20836;-68
2021/03/02 03:35:30;;;;;;;0.80;0.70;;;;;;;;;;5053403;28;20400;-69
2021/03/02 03:37:56;;;;;;;1.40;1.17;;;;;;;;;;5053264;28;20434;-69
2021/03/02 03:40:22;;;;;;;1.00;0.60;;;;;;;;;;5052558;28;20482;-70
2021/03/02 03:42:48;;;;;;;1.50;1.40;;;;;;;;;;5052766;28;20399;-69
2021/03/02 03:45:14;;;;;;;3.30;1.20;;;;;;;;;;5070197;28;20493;-69
2021/03/02 03:47:40;;;;;;;3.67;1.17;;;;;;;;;;5067091;28;20442;-69
2021/03/02 03:50:08;;;;;;;1.40;1.30;;;;;;;;;;5052592;28;21067;-68
2021/03/02 03:52:35;;;;;;;1.00;0.83;;;;;;;;;;5070917;28;20421;-70
2021/03/02 03:55:02;;;;;;;0.70;0.60;;;;;;;;;;5092257;28;20464;-70
2021/03/02 03:57:28;;;;;;;1.53;1.43;;;;;;;;;;5075461;28;20470;-69
2021/03/02 03:59:55;;;;;;;0.80;0.60;;;;;;;;;;5071793;28;21048;-69
2021/03/02 04:02:21;;;;;;;0.90;0.80;;;;;;;;;;5062633;28;20415;-69
2021/03/02 04:04:48;;;;;;;0.90;0.60;;;;;;;;;;5052254;28;20766;-69
2021/03/02 04:07:14;;;;;;;0.80;0.60;;;;;;;;;;5050303;28;20433;-70
2021/03/02 04:09:41;;;;;;;0.97;0.90;;;;;;;;;;5051764;28;20507;-70
2021/03/02 04:12:09;;;;;;;6.93;0.90;;;;;;;;;;5071928;28;20500;-68
2021/03/02 04:14:35;;;;;;;0.73;0.53;;;;;;;;;;5071056;28;20453;-70
2021/03/02 04:17:02;;;;;;;0.90;0.80;;;;;;;;;;5059795;28;20449;-69
2021/03/02 04:19:28;;;;;;;0.90;0.70;;;;;;;;;;5054536;28;20439;-69
2021/03/02 04:21:54;;;;;;;2.03;0.70;;;;;;;;;;5071856;28;20788;-70
2021/03/02 04:24:20;;;;;;;0.90;0.70;;;;;;;;;;5064179;28;20962;-70
2021/03/02 04:26:46;;;;;;;0.70;0.50;;;;;;;;;;5062843;28;20879;-68
2021/03/02 04:29:12;;;;;;;2.63;1.97;;;;;;;;;;5063333;28;20430;-70
2021/03/02 04:31:37;;;;;;;4.47;1.97;;;;;;;;;;5068050;28;20432;-71
2021/03/02 04:34:03;;;;;;;1.00;0.90;;;;;;;;;;5065241;28;20441;-71
2021/03/02 04:36:29;;;;;;;4.17;1.37;;;;;;;;;;5069837;28;20411;-70
2021/03/02 04:38:55;;;;;;;2.00;1.00;;;;;;;;;;5065802;28;20476;-70
2021/03/02 04:41:21;;;;;;;2.07;1.97;;;;;;;;;;5060468;28;20411;-70
2021/03/02 04:43:47;;;;;;;2.40;2.20;;;;;;;;;;5053359;28;20847;-70
2021/03/02 04:46:13;;;;;;;4.50;2.70;;;;;;;;;;5075108;28;20407;-70
2021/03/02 04:48:39;;;;;;;1.10;1.00;;;;;;;;;;5074398;28;20461;-70
2021/03/02 04:51:05;;;;;;;1.67;0.90;;;;;;;;;;5074352;28;20452;-70
2021/03/02 04:53:33;;;;;;;0.70;0.50;;;;;;;;;;5070380;28;20412;-70
2021/03/02 04:55:59;;;;;;;0.97;0.87;;;;;;;;;;5065243;28;20837;-70
2021/03/02 04:58:25;;;;;;;4.70;2.27;;;;;;;;;;5064392;28;20426;-70
2021/03/02 05:00:51;;;;;;;1.43;1.33;;;;;;;;;;5071014;28;20414;-70
2021/03/02 05:03:17;;;;;;;1.10;1.00;;;;;;;;;;5072086;28;20405;-70
2021/03/02 05:05:43;;;;;;;1.83;1.73;;;;;;;;;;5056705;28;20506;-71
2021/03/02 05:08:09;;;;;;;0.77;0.50;;;;;;;;;;5069329;28;20425;-70
2021/03/02 05:10:35;;;;;;;0.80;0.80;;;;;;;;;;5062456;28;20402;-71
2021/03/02 05:13:00;;;;;;;2.50;1.13;;;;;;;;;;5064713;28;20407;-70
2021/03/02 05:15:26;;;;;;;0.80;0.70;;;;;;;;;;5062039;28;20473;-70
2021/03/02 05:17:52;;;;;;;1.73;1.43;;;;;;;;;;5058029;28;20430;-70
2021/03/02 05:20:18;;;;;;;1.50;0.90;;;;;;;;;;5061002;28;20469;-70
2021/03/02 05:22:44;;;;;;;5.07;4.70;;;;;;;;;;5062548;28;20399;-70
2021/03/02 05:25:10;;;;;;;0.70;0.57;;;;;;;;;;5062869;28;21092;-69
2021/03/02 05:27:36;;;;;;;0.80;0.63;;;;;;;;;;5062129;28;20454;-69
2021/03/02 05:30:03;;;;;;;0.87;0.67;;;;;;;;;;5064345;28;20433;-69
2021/03/02 05:32:29;;;;;;;1.00;0.60;;;;;;;;;;5065023;28;20409;-69
2021/03/02 05:34:55;;;;;;;1.80;1.00;;;;;;;;;;5064176;28;20478;-69
2021/03/02 05:37:21;;;;;;;0.70;0.50;;;;;;;;;;5064759;28;20530;-70
2021/03/02 05:39:47;;;;;;;0.80;0.73;;;;;;;;;;5062493;28;20496;-69
2021/03/02 05:42:13;;;;;;;3.90;0.80;;;;;;;;;;5065978;28;20474;-69
2021/03/02 05:44:39;;;;;;;0.93;0.70;;;;;;;;;;5045057;28;20811;-69
2021/03/02 05:47:05;;;;;;;1.10;0.77;;;;;;;;;;5062941;28;20522;-70
2021/03/02 05:49:31;;;;;;;1.43;1.23;;;;;;;;;;5061965;28;20453;-68
2021/03/02 05:51:58;;;;;;;2.30;1.10;;;;;;;;;;5064606;28;20414;-70
2021/03/02 05:54:24;;;;;;;3.87;3.20;;;;;;;;;;5057735;28;21652;-70
2021/03/02 05:56:50;;;;;;;1.53;1.43;;;;;;;;;;5061881;28;20406;-74
2021/03/02 05:59:17;;;;;;;1.10;1.03;;;;;;;;;;5062214;28;21021;-73
2021/03/02 06:01:43;;;;;;;0.90;0.80;;;;;;;;;;5065384;28;20484;-73
2021/03/02 06:04:15;;;;;;;3.57;1.50;;;;;;;;;;5061055;28;20507;-74
2021/03/02 06:06:41;;;;;;;1.07;0.97;;;;;;;;;;5060699;28;20576;-71
2021/03/02 06:09:07;;;;;;;6.37;1.43;;;;;;;;;;5069740;28;21127;-71
2021/03/02 06:11:37;;;;;;;0.90;0.90;;;;;;;;;;5067274;28;21231;-71
2021/03/02 06:14:17;;;;;;;0.80;0.60;;;;;;;;;;5074092;28;20414;-75
2021/03/02 06:16:47;;;;;;;1.37;1.27;;;;;;;;;;5064343;28;20436;-73
2021/03/02 06:19:13;;;;;;;0.70;0.60;;;;;;;;;;5064359;28;20505;-69
2021/03/02 06:21:39;;;;;;;1.03;0.93;;;;;;;;;;5061974;28;20404;-70
2021/03/02 06:24:05;;;;;;;1.00;0.70;;;;;;;;;;5068060;28;20410;-68
2021/03/02 06:26:31;;;;;;;0.80;0.70;;;;;;;;;;5055639;28;20403;-70
2021/03/02 06:28:58;;;;;;;0.73;0.60;;;;;;;;;;5066941;28;20457;-69
2021/03/02 06:31:50;;;;;;;1.00;0.90;;;;;;;;;;5079773;28;20398;-69
2021/03/02 06:34:17;;;;;;;0.70;0.53;;;;;;;;;;5053622;28;20447;-68
2021/03/02 06:36:55;;;;;;;0.70;0.50;;;;;;;;;;5049555;28;20422;-69
2021/03/02 06:39:28;;;;;;;1.63;1.53;;;;;;;;;;5053430;28;20464;-67
2021/03/02 06:42:15;;;;;;;1.30;1.00;;;;;;;;;;5044096;28;20777;-71
2021/03/02 06:44:42;;;;;;;0.80;0.70;;;;;;;;;;5076455;22;20412;-68
2021/03/02 06:47:08;;;;;;;2.40;1.20;;;;;;;;;;5064086;28;20172;-70
2021/03/02 06:49:42;;;;;;;1.00;0.80;;;;;;;;;;5066737;28;20407;-71
2021/03/02 06:52:18;;;;;;;0.90;0.70;;;;;;;;;;5063242;28;20728;-71
2021/03/02 06:54:44;;;;;;;0.70;0.50;;;;;;;;;;5063070;28;20481;-70
2021/03/02 06:57:10;;;;;;;0.70;0.50;;;;;;;;;;5064343;28;20974;-69
2021/03/02 06:59:36;;;;;;;0.80;0.80;;;;;;;;;;5056793;28;20535;-70
2021/03/02 07:02:02;;;;;;;3.27;0.93;;;;;;;;;;5059650;28;20398;-71
2021/03/02 07:04:29;;;;;;;2.20;1.27;;;;;;;;;;5061560;28;20679;-70
2021/03/02 07:06:57;;;;;;;0.97;0.90;;;;;;;;;;5055190;28;20406;-71
2021/03/02 07:09:23;;;;;;;0.80;0.70;;;;;;;;;;5034720;28;20430;-69
2021/03/02 07:11:49;;;;;;;1.25;0.95;;;;;;;;;;5036770;28;20177;-69
2021/03/02 07:14:16;;;;;;;1.70;1.60;;;;;;;;;;5038345;28;20214;-70
2021/03/02 07:16:45;;;;;;;1.38;1.27;;;;;;;;;;5044216;28;20434;-71
2021/03/02 07:19:16;;;;;;;8.07;1.73;;;;;;;;;;5060636;28;20214;-70
2021/03/02 07:21:44;;;;;;;0.70;0.50;;;;;;;;;;5045798;28;20399;-70
2021/03/02 07:24:11;;;;;;;0.87;0.63;;;;;;;;;;5055384;28;21220;-69
2021/03/02 07:26:40;;;;;;;0.93;0.80;;;;;;;;;;5055236;28;20771;-68
2021/03/02 07:29:06;;;;;;;1.60;1.20;;;;;;;;;;5059044;28;20844;-69
2021/03/02 07:31:32;;;;;;;1.53;1.13;;;;;;;;;;5048953;28;20715;-69
2021/03/02 07:33:59;;;;;;;0.90;0.70;;;;;;;;;;5033834;28;20458;-70
2021/03/02 07:36:25;;;;;;;1.37;1.27;;;;;;;;;;5044167;28;20438;-70
2021/03/02 07:39:11;;;;;;;0.70;0.50;;;;;;;;;;5046426;28;20608;-69
2021/03/02 07:41:37;;;;;;;15.13;1.47;;;;;;;;;;5043235;28;20419;-70
2021/03/02 07:44:03;;;;;;;1.40;0.80;;;;;;;;;;5047712;28;20498;-70
2021/03/02 07:46:39;;;;;;;2.40;2.20;;;;;;;;;;5050424;28;20442;-69
2021/03/02 07:49:31;;;;;;;1.47;1.10;;;;;;;;;;5045610;28;20413;-70
2021/03/02 07:51:57;;;;;;;0.70;0.57;;;;;;;;;;5046298;28;20431;-71
2021/03/02 07:54:24;;;;;;;1.23;0.80;;;;;;;;;;5055416;28;20476;-71
2021/03/02 07:56:50;;;;;;;0.80;0.70;;;;;;;;;;5035325;28;20497;-71
2021/03/02 07:59:17;;;;;;;1.30;1.20;;;;;;;;;;5042242;28;20462;-71
2021/03/02 08:01:43;;;;;;;1.67;1.57;;;;;;;;;;5051514;28;20484;-70
2021/03/02 08:04:15;;;;;;;1.10;1.00;;;;;;;;;;5043774;28;20494;-70
2021/03/02 08:06:42;;;;;;;0.80;0.60;;;;;;;;;;5055623;28;20465;-69
2021/03/02 08:09:26;;;;;;;6.43;1.87;;;;;;;;;;5053706;28;20414;-69
2021/03/02 08:11:54;;;;;;;1.00;0.60;;;;;;;;;;5057015;28;20418;-72
2021/03/02 08:14:27;;;;;;;1.17;1.10;;;;;;;;;;5047916;28;20410;-68
2021/03/02 08:17:05;;;;;;;0.83;0.83;;;;;;;;;;5052665;28;20801;-70
2021/03/02 08:19:36;;;;;;;5.23;2.33;;;;;;;;;;5032172;28;20452;-70
2021/03/02 08:22:03;;;;;;;1.43;1.33;;;;;;;;;;5051596;28;20979;-69
2021/03/02 08:24:47;;;;;;;2.07;1.30;;;;;;;;;;5039358;28;20488;-70
2021/03/02 08:27:13;;;;;;;1.00;0.90;;;;;;;;;;5047239;28;21007;-70
2021/03/02 08:29:49;;;;;;;0.80;0.70;;;;;;;;;;5057105;28;20786;-70
2021/03/02 08:32:15;;;;;;;1.30;1.20;;;;;;;;;;5058344;28;20423;-69
2021/03/02 08:34:41;;;;;;;0.80;0.60;;;;;;;;;;5061780;28;20421;-70
2021/03/02 08:37:07;;;;;;;1.47;1.37;;;;;;;;;;5040318;28;20414;-70
2021/03/02 08:39:33;;;;;;;3.00;1.17;;;;;;;;;;5058736;28;21097;-69
2021/03/02 08:41:59;;;;;;;2.33;2.23;;;;;;;;;;5040047;28;20707;-69
2021/03/02 08:44:26;;;;;;;5.87;2.20;;;;;;;;;;5059307;28;20396;-70
2021/03/02 08:46:57;;;;;;;1.10;0.80;;;;;;;;;;5059431;28;20430;-70
2021/03/02 08:49:24;;;;;;;0.80;0.70;;;;;;;;;;5059926;28;20399;-70
2021/03/02 08:51:58;;;;;;;1.67;1.27;;;;;;;;;;5038617;28;20923;-70
2021/03/02 08:54:24;;;;;;;1.73;1.63;;;;;;;;;;5058371;28;20436;-70
2021/03/02 08:57:03;;;;;;;2.70;1.87;;;;;;;;;;5056551;28;20452;-70
2021/03/02 08:59:30;;;;;;;0.80;0.70;;;;;;;;;;5057731;28;20495;-71
2021/03/02 09:01:59;;;;;;;1.97;1.80;;;;;;;;;;5058541;28;20825;-70
2021/03/02 09:04:30;;;;;;;1.90;1.80;;;;;;;;;;5056485;28;20410;-69
2021/03/02 09:06:56;;;;;;;1.83;1.30;;;;;;;;;;5040928;28;20422;-70
2021/03/02 09:09:24;;;;;;;2.60;2.17;;;;;;;;;;5050195;28;20410;-69
2021/03/02 09:11:51;;;;;;;4.93;2.30;;;;;;;;;;5041701;28;20430;-70
2021/03/02 09:14:18;;;;;;;2.03;1.90;;;;;;;;;;5049570;28;20426;-70
2021/03/02 09:16:48;;;;;;;6.47;1.03;;;;;;;;;;5030125;28;20496;-70
2021/03/02 09:19:19;;;;;;;1.53;1.40;;;;;;;;;;5047525;28;20463;-71
2021/03/02 09:21:48;;;;;;;0.70;0.70;;;;;;;;;;5056997;28;20414;-71
2021/03/02 09:24:18;;;;;;;3.60;2.50;;;;;;;;;;5050039;28;20510;-70
2021/03/02 09:26:51;;;;;;;0.80;0.70;;;;;;;;;;5049396;28;20423;-71
2021/03/02 09:29:17;;;;;;;1.83;1.73;;;;;;;;;;5056949;28;20428;-70
2021/03/02 09:31:44;;;;;;;2.17;1.93;;;;;;;;;;5057233;28;20926;-71
2021/03/02 09:34:13;;;;;;;2.33;1.90;;;;;;;;;;5059271;28;20415;-70
2021/03/02 09:36:39;;;;;;;2.03;1.90;;;;;;;;;;5055307;28;20469;-71
2021/03/02 09:39:19;;;;;;;0.87;0.73;;;;;;;;;;5058117;28;20525;-71
2021/03/02 09:41:45;;;;;;;1.23;1.10;;;;;;;;;;5052799;28;20404;-71
2021/03/02 09:44:30;;;;;;;1.87;1.77;;;;;;;;;;5053417;28;20475;-70
2021/03/02 09:46:57;;;;;;;10.10;2.47;;;;;;;;;;5059319;28;20551;-70
2021/03/02 09:49:33;;;;;;;7.73;2.90;;;;;;;;;;5054792;28;20416;-71
2021/03/02 09:51:58;;;;;;;1.13;1.03;;;;;;;;;;5042213;28;20419;-70
2021/03/02 09:54:24;;;;;;;6.87;2.03;;;;;;;;;;5046910;28;20423;-72
2021/03/02 09:57:04;;;;;;;1.63;1.20;;;;;;;;;;5037601;28;20419;-71
2021/03/02 09:59:31;;;;;;;2.43;2.23;;;;;;;;;;5025675;28;20467;-70
2021/03/02 10:01:57;;;;;;;3.70;2.03;;;;;;;;;;5046813;28;20438;-71
2021/03/02 10:04:24;;;;;;;3.93;3.13;;;;;;;;;;5042537;28;20820;-71
2021/03/02 10:06:50;;;;;;;133.10;113.60;;;;;;;;;;5040431;28;20432;-71
2021/03/02 10:09:23;;;;;;;104.63;70.20;;;;;;;;;;5047927;28;20196;-70
2021/03/02 10:12:07;;;;;;;178.57;159.73;;;;;;;;;;5050570;28;20427;-71
2021/03/02 10:14:36;;;;;;;4.27;2.63;;;;;;;;;;5051271;28;20384;-69
2021/03/02 10:17:03;;;;;;;4.93;3.20;;;;;;;;;;5056576;28;20422;-70
2021/03/02 10:19:30;;;;;;;4.23;2.73;;;;;;;;;;5053895;28;20426;-69
2021/03/02 10:21:57;;;;;;;5.00;3.53;;;;;;;;;;5060484;28;20380;-68
2021/03/02 10:24:23;;;;;;;9.07;3.73;;;;;;;;;;5061816;28;20407;-69
2021/03/02 10:26:49;;;;;;;7.97;3.70;;;;;;;;;;5059243;28;21857;-69
2021/03/02 10:29:15;;;;;;;6.13;4.80;;;;;;;;;;5062253;28;20392;-71
2021/03/02 10:31:41;;;;;;;562.87;508.23;;;;;;;;;;5055290;28;20463;-69
2021/03/02 10:34:08;;;;;;;667.70;624.60;;;;;;;;;;5050107;28;20807;-70
2021/03/02 10:36:35;;;;;;;38.57;34.73;;;;;;;;;;5053166;28;20506;-70
2021/03/02 10:39:03;;;;;;;185.10;168.77;;;;;;;;;;5053501;28;20576;-70
2021/03/02 10:41:29;;;;;;;98.07;87.67;;;;;;;;;;5053384;28;20407;-70
2021/03/02 10:43:56;;;;;;;428.30;389.60;;;;;;;;;;5033662;28;20499;-70
2021/03/02 10:46:25;;;;;;;292.80;268.43;;;;;;;;;;5047471;28;20454;-70
2021/03/02 10:48:51;;;;;;;66.43;53.43;;;;;;;;;;5052893;28;20415;-70
2021/03/02 10:51:17;;;;;;;84.90;77.10;;;;;;;;;;5052623;28;20430;-70
2021/03/02 10:53:44;;;;;;;5.80;4.07;;;;;;;;;;5052863;28;20403;-70
2021/03/02 10:56:10;;;;;;;12.07;3.60;;;;;;;;;;5053093;28;20461;-70
2021/03/02 10:58:36;;;;;;;5.57;4.47;;;;;;;;;;5052974;28;20446;-70
2021/03/02 11:01:02;;;;;;;9.93;5.00;;;;;;;;;;5052652;28;20411;-70
2021/03/02 11:03:29;;;;;;;6.67;4.53;;;;;;;;;;5054688;28;20750;-70
2021/03/02 11:05:54;;;;;;;10.40;3.40;;;;;;;;;;5061601;28;20969;-71
2021/03/02 11:08:21;;;;;;;6.27;4.00;;;;;;;;;;5053858;28;20472;-70
2021/03/02 11:10:48;;;;;;;6.63;4.77;;;;;;;;;;5051248;28;20540;-70
2021/03/02 11:13:14;;;;;;;4.63;3.57;;;;;;;;;;5051422;28;20415;-70
2021/03/02 11:15:40;;;;;;;2.93;2.70;;;;;;;;;;5044678;28;20447;-72
2021/03/02 11:18:10;;;;;;;18.50;6.80;;;;;;;;;;5059090;28;20608;-72
2021/03/02 11:20:36;;;;;;;6.17;3.47;;;;;;;;;;5068079;28;20479;-71
2021/03/02 11:23:02;;;;;;;7.50;3.67;;;;;;;;;;5052707;28;20447;-71
2021/03/02 11:25:29;;;;;;;8.03;3.80;;;;;;;;;;5051769;28;20431;-70
2021/03/02 11:27:55;;;;;;;6.70;4.37;;;;;;;;;;5051446;28;20505;-71
2021/03/02 11:30:23;;;;;;;8.93;4.20;;;;;;;;;;5055205;28;20427;-70
2021/03/02 11:32:49;;;;;;;5.40;3.17;;;;;;;;;;5058840;28;20650;-72
2021/03/02 11:35:16;;;;;;;7.80;4.27;;;;;;;;;;5057593;28;20435;-72
2021/03/02 11:37:42;;;;;;;6.50;3.60;;;;;;;;;;5056180;28;20450;-71
2021/03/02 11:40:12;;;;;;;6.30;4.60;;;;;;;;;;5053083;28;22746;-71
2021/03/02 11:42:38;;;;;;;18.80;11.87;;;;;;;;;;5049966;28;20496;-71
2021/03/02 11:45:05;;;;;;;305.30;271.97;;;;;;;;;;5052539;28;20457;-71
2021/03/02 11:47:31;;;;;;;283.10;254.73;;;;;;;;;;5050625;28;20416;-71
2021/03/02 11:49:57;;;;;;;199.17;179.00;;;;;;;;;;5057976;28;20496;-71
2021/03/02 11:52:23;;;;;;;940.80;865.07;;;;;;;;;;5050180;28;20478;-72
2021/03/02 11:54:50;;;;;;;603.63;545.93;;;;;;;;;;5057234;28;20700;-70
2021/03/02 11:57:17;;;;;;;1062.37;977.90;;;;;;;;;;5050779;28;20922;-70
2021/03/02 11:59:43;;;;;;;964.60;894.30;;;;;;;;;;5056191;28;21068;-69
2021/03/02 12:02:12;;;;;;;829.80;768.70;;;;;;;;;;5050228;28;20415;-70
2021/03/02 12:04:38;;;;;;;820.43;755.53;;;;;;;;;;5058254;28;20399;-70
2021/03/02 12:07:04;;;;;;;799.07;729.17;;;;;;;;;;5051681;28;20442;-71
2021/03/02 12:09:30;;;;;;;206.70;185.80;;;;;;;;;;5048379;28;20429;-70
2021/03/02 12:11:56;;;;;;;13.13;11.93;;;;;;;;;;5055839;28;20447;-70
2021/03/02 12:14:22;;;;;;;18.43;14.87;;;;;;;;;;5050252;28;20925;-69
2021/03/02 12:16:48;;;;;;;920.53;853.50;;;;;;;;;;5050221;28;20434;-70
2021/03/02 12:19:14;;;;;;;550.27;511.13;;;;;;;;;;5050767;28;20451;-70
2021/03/02 12:21:40;;;;;;;853.17;788.00;;;;;;;;;;5051200;28;20498;-70
2021/03/02 12:24:06;;;;;;;751.60;699.23;;;;;;;;;;5048260;28;20407;-70
2021/03/02 12:26:33;;;;;;;736.87;681.67;;;;;;;;;;5057417;28;20404;-69
2021/03/02 12:28:59;;;;;;;885.47;814.27;;;;;;;;;;5057196;28;20449;-70
2021/03/02 12:31:25;;;;;;;808.30;735.23;;;;;;;;;;5049448;28;20890;-70
2021/03/02 12:33:51;;;;;;;92.43;86.77;;;;;;;;;;5054770;28;20484;-69
2021/03/02 12:36:17;;;;;;;474.00;436.17;;;;;;;;;;5056538;28;20501;-70
2021/03/02 12:38:43;;;;;;;656.67;595.40;;;;;;;;;;5057767;28;20438;-67
2021/03/02 12:41:09;;;;;;;536.17;494.87;;;;;;;;;;5036712;28;20422;-68
2021/03/02 12:43:35;;;;;;;758.90;687.23;;;;;;;;;;5028433;28;20495;-69
2021/03/02 12:46:01;;;;;;;736.33;663.40;;;;;;;;;;5031969;28;20453;-71
2021/03/02 12:48:26;;;;;;;1.40;1.30;;;;;;;;;;5037235;28;20416;-72
2021/03/02 12:50:52;;;;;;;1.80;1.70;;;;;;;;;;5042910;28;20768;-72
2021/03/02 12:53:18;;;;;;;5.53;1.60;;;;;;;;;;5028757;28;20523;-74
2021/03/02 12:55:44;;;;;;;2.00;1.57;;;;;;;;;;5030385;28;20441;-71
2021/03/02 12:58:10;;;;;;;9.43;4.20;;;;;;;;;;5040036;28;20441;-72
2021/03/02 13:00:37;;;;;;;2.63;2.43;;;;;;;;;;5056214;28;20442;-72
2021/03/02 13:03:03;;;;;;;5.13;2.43;;;;;;;;;;5035542;28;20398;-73
2021/03/02 13:05:29;;;;;;;2.20;2.00;;;;;;;;;;5031440;28;20435;-72
2021/03/02 13:07:56;;;;;;;5.67;3.00;;;;;;;;;;5030376;28;22175;-73
2021/03/02 13:10:22;;;;;;;10.70;3.20;;;;;;;;;;5047528;28;20484;-72
2021/03/02 13:12:48;;;;;;;4.00;2.63;;;;;;;;;;5054699;28;20415;-72
2021/03/02 13:15:14;;;;;;;331.33;296.10;;;;;;;;;;5048689;28;20537;-72
2021/03/02 13:17:40;;;;;;;3.67;3.33;;;;;;;;;;5047230;28;20423;-73
2021/03/02 13:20:07;;;;;;;8.40;4.10;;;;;;;;;;5056258;28;20451;-75
2021/03/02 13:22:33;;;;;;;9.83;4.30;;;;;;;;;;5048405;28;20420;-73
2021/03/02 13:24:59;;;;;;;4.60;3.30;;;;;;;;;;5049011;28;20433;-73
2021/03/02 13:27:25;;;;;;;7.07;5.10;;;;;;;;;;5055094;28;20408;-72
2021/03/02 13:29:55;;;;;;;6.40;5.00;;;;;;;;;;5046546;28;20418;-73
2021/03/02 13:32:30;;;;;;;159.57;142.87;;;;;;;;;;5051087;28;20418;-74
2021/03/02 13:34:56;;;;;;;7.73;4.10;;;;;;;;;;5045476;28;20431;-72
2021/03/02 13:37:22;;;;;;;11.30;4.80;;;;;;;;;;5051843;28;20929;-72
2021/03/02 13:39:48;;;;;;;5.37;4.43;;;;;;;;;;5047655;28;20466;-72
2021/03/02 13:42:15;;;;;;;6.77;4.20;;;;;;;;;;5049491;28;20406;-72
2021/03/02 13:44:41;;;;;;;6.17;3.83;;;;;;;;;;5041738;28;20423;-72
2021/03/02 13:47:07;;;;;;;4.53;3.50;;;;;;;;;;5049691;28;20976;-72
2021/03/02 13:49:33;;;;;;;6.73;3.13;;;;;;;;;;5046736;28;20475;-71
2021/03/02 13:51:59;;;;;;;9.97;3.93;;;;;;;;;;5046981;28;20419;-73
2021/03/02 13:54:25;;;;;;;5.37;3.37;;;;;;;;;;5055747;28;20525;-73
2021/03/02 13:56:52;;;;;;;5.93;2.83;;;;;;;;;;5058298;28;20417;-71
2021/03/02 13:59:18;;;;;;;10.90;4.53;;;;;;;;;;5036886;28;20560;-73
2021/03/02 14:01:44;;;;;;;3.10;2.57;;;;;;;;;;5039215;28;20502;-71
2021/03/02 14:04:11;;;;;;;5.03;3.60;;;;;;;;;;5048969;28;20390;-71
2021/03/02 14:06:40;;;;;;;5.00;2.80;;;;;;;;;;5052226;28;20772;-71
2021/03/02 14:09:06;;;;;;;4.27;3.03;;;;;;;;;;5051014;28;20429;-72
2021/03/02 14:11:34;;;;;;;6.27;2.67;;;;;;;;;;5055550;28;20413;-72
2021/03/02 14:14:06;;;;;;;11.40;5.93;;;;;;;;;;5048988;28;20419;-72
2021/03/02 14:16:36;;;;;;;7.30;4.37;;;;;;;;;;5053784;28;20916;-71
2021/03/02 14:19:02;;;;;;;5.47;3.60;;;;;;;;;;5054020;28;20740;-72
2021/03/02 14:21:28;;;;;;;18.77;4.73;;;;;;;;;;5047544;28;20427;-73
2021/03/02 14:23:54;;;;;;;4.77;2.80;;;;;;;;;;5048692;28;20450;-72
2021/03/02 14:26:20;;;;;;;11.73;4.63;;;;;;;;;;5057080;28;20450;-72
2021/03/02 14:28:47;;;;;;;12.20;3.20;;;;;;;;;;5053698;28;20393;-71
2021/03/02 14:31:13;;;;;;;5.03;2.80;;;;;;;;;;5048004;28;20173;-71
2021/03/02 14:33:39;;;;;;;9.33;4.10;;;;;;;;;;5052499;28;20857;-72
2021/03/02 14:36:06;;;;;;;4.43;3.47;;;;;;;;;;5052396;28;20929;-73
2021/03/02 14:38:32;;;;;;;5.60;3.73;;;;;;;;;;5056735;28;20492;-73